KHRO/HRO METAR and TAF weather

Enter ICAO airport designator
Station Type Date Time Source
KHRO METAR 2019/08/21 02:53 UTC NOAA

KHRO 210253Z AUTO 14008KT 10SM CLR 21/19 A3010 RMK AO2 LTG DSNT E SLP176 60005 T02110189 53004


Station Type Date Time Source
KHRO Decoded METAR 2019/08/21 02:53 UTC NOAA

Station name not available
Aug 20, 2019 - 10:53 PM EDT / 2019.08.21 0253 UTC
Wind: from the SE (140 degrees) at 9 MPH (8 KT):0
Visibility: 10 mile(s):0
Sky conditions: clear
Weather: Lightning observed
Temperature: 70.0 F (21.1 C)
Dew Point: 66.0 F (18.9 C)
Relative Humidity: 87%
Pressure (altimeter): 30.1 in. Hg (1019 hPa)
Pressure tendency: 0.01 inches (0.4 hPa) higher than three hours ago
ob: KHRO 210253Z AUTO 14008KT 10SM CLR 21/19 A3010 RMK AO2 LTG DSNT E SLP176 60005 T02110189 53004
cycle: 3

Station Type Date Time Source
KHRO TAF 2019/08/20 19:30 UTC NOAA

TAF
AMD KHRO 201929Z 2019/2118 16006KT P6SM VCTS SCT045CB SCT250
FM210000 16004KT P6SM SCT250
FM211500 24006KT P6SM FEW250

Example: see airport list